MMRX/REX METAR and TAF weather

Enter ICAO airport designator
Station Type Date Time Source
MMRX METAR 2018/12/13 01:40 UTC NOAA

MMRX 130140Z 14010KT 8SM FEW110 20/16 A2988 RMK 8/030 HZY FU


Station Type Date Time Source
MMRX Decoded METAR 2018/12/13 01:40 UTC NOAA

Reynosa International Airport , Mexico (MMRX) 26-01N 098-14W
Dec 12, 2018 - 08:40 PM EST / 2018.12.13 0140 UTC
Wind: from the SE (140 degrees) at 12 MPH (10 KT):0
Visibility: 8 mile(s):0
Sky conditions: mostly clear
Temperature: 68 F (20 C)
Dew Point: 60 F (16 C)
Relative Humidity: 77%
Pressure (altimeter): 29.88 in. Hg (1011 hPa)
ob: MMRX 130140Z 14010KT 8SM FEW110 20/16 A2988 RMK 8/030 HZY FU
cycle: 1

Station Type Date Time Source
MMRX TAF 2018/12/13 06:36 UTC NOAA

TAF MMRX 130528Z 1306/1406 15008KT P6SM SCT030 SCT120
TEMPO 1311/1315 3SM -RA BKN012
FM131800 30012KT P6SM BKN020 BKN080
FM140500 34010KT P6SM SCT020 BKN080


Example: see airport list